Time;durP1;ratioP1;P1;durP2;ratioP2;P2;SDS_P1;SDS_P2;PMS_P1;PMS_P2;Temp;Humidity;BMP_temperature;BMP_pressure;BME280_temperature;BME280_humidity;BME280_pressure;Samples;Min_cycle;Max_cycle;Signal;HPM_P1;HPM_P2
2022/07/09 00:01:13;;;;;;;1.27;0.80;;;8.70;99.90;;;;;;5051461;28;20037;-76
2022/07/09 00:03:41;;;;;;;1.73;0.70;;;8.70;99.90;;;;;;5051567;28;20025;-75
2022/07/09 00:06:09;;;;;;;4.10;0.80;;;8.80;99.90;;;;;;5054584;28;20040;-76
2022/07/09 00:08:36;;;;;;;1.10;0.55;;;8.80;99.90;;;;;;5051538;28;20013;-76
2022/07/09 00:11:04;;;;;;;1.65;0.60;;;8.90;99.90;;;;;;5051642;28;20384;-76
2022/07/09 00:13:32;;;;;;;1.98;0.88;;;8.90;99.90;;;;;;5051356;28;20025;-79
2022/07/09 00:15:59;;;;;;;1.27;0.65;;;8.90;99.90;;;;;;5054901;28;20036;-69
2022/07/09 00:18:27;;;;;;;2.38;1.02;;;8.90;99.90;;;;;;5055251;28;20047;-76
2022/07/09 00:20:56;;;;;;;3.15;0.80;;;9.00;99.90;;;;;;5055371;28;20025;-77
2022/07/09 00:23:24;;;;;;;1.95;1.05;;;9.00;99.90;;;;;;5060120;28;20028;-78
2022/07/09 00:25:52;;;;;;;2.65;1.08;;;9.00;99.90;;;;;;5072849;28;20070;-77
2022/07/09 00:28:20;;;;;;;1.60;0.90;;;9.10;99.90;;;;;;5075374;28;20025;-77
2022/07/09 00:30:48;;;;;;;1.70;1.02;;;9.20;99.90;;;;;;5058056;28;20086;-75
2022/07/09 00:33:15;;;;;;;1.90;0.63;;;9.20;99.90;;;;;;5055817;28;20036;-76
2022/07/09 00:35:43;;;;;;;5.68;1.10;;;9.30;99.90;;;;;;5055606;28;20057;-76
2022/07/09 00:38:11;;;;;;;1.02;0.70;;;9.30;99.90;;;;;;5055944;28;20014;-76
2022/07/09 00:40:39;;;;;;;2.95;0.90;;;9.30;99.90;;;;;;5055560;28;20111;-76
2022/07/09 00:43:20;;;;;;;3.30;0.75;;;9.40;99.90;;;;;;5055950;28;20024;-76
2022/07/09 00:45:48;;;;;;;1.65;0.90;;;9.40;99.90;;;;;;5055730;28;20032;-77
2022/07/09 00:48:20;;;;;;;2.30;0.90;;;9.50;99.90;;;;;;5055777;28;20014;-76
2022/07/09 00:50:48;;;;;;;3.17;1.15;;;9.50;99.90;;;;;;5055614;28;20146;-77
2022/07/09 00:53:22;;;;;;;5.75;1.27;;;9.60;99.90;;;;;;5055480;28;20080;-77
2022/07/09 00:55:51;;;;;;;2.10;0.98;;;9.70;99.90;;;;;;5055596;28;20037;-76
2022/07/09 00:58:19;;;;;;;1.52;0.90;;;9.70;99.90;;;;;;5055529;28;20021;-76
2022/07/09 01:00:47;;;;;;;2.08;0.88;;;9.80;99.90;;;;;;5055274;28;20150;-76
2022/07/09 01:03:15;;;;;;;1.77;0.85;;;9.80;99.90;;;;;;5055788;28;20464;-77
2022/07/09 01:05:43;;;;;;;4.25;0.80;;;9.80;99.90;;;;;;5054140;28;20434;-76
2022/07/09 01:08:14;;;;;;;1.88;0.80;;;9.90;99.90;;;;;;5044706;28;20024;-76
2022/07/09 01:10:42;;;;;;;2.17;1.13;;;10.00;99.90;;;;;;5075071;28;20024;-76
2022/07/09 01:13:11;;;;;;;1.60;0.80;;;10.10;99.90;;;;;;5074432;28;20023;-77
2022/07/09 01:15:39;;;;;;;0.95;0.70;;;10.20;99.90;;;;;;5074950;28;20028;-74
2022/07/09 01:18:10;;;;;;;3.30;0.50;;;10.30;99.90;;;;;;5075000;28;20019;-73
2022/07/09 01:20:38;;;;;;;5.63;1.02;;;10.40;99.90;;;;;;5072874;28;20025;-75
2022/07/09 01:23:06;;;;;;;2.13;0.55;;;10.40;99.90;;;;;;5074585;28;20013;-74
2022/07/09 01:25:43;;;;;;;0.73;0.52;;;10.40;99.90;;;;;;5071831;28;20048;-70
2022/07/09 01:28:11;;;;;;;1.70;0.70;;;10.50;99.90;;;;;;5064494;28;20352;-76
2022/07/09 01:30:41;;;;;;;0.85;0.40;;;10.60;99.90;;;;;;5055131;28;20035;-73
2022/07/09 01:33:09;;;;;;;1.85;0.40;;;10.60;99.90;;;;;;5053998;28;20430;-75
2022/07/09 01:35:36;;;;;;;4.57;0.63;;;10.60;99.90;;;;;;5037223;28;20025;-76
2022/07/09 01:38:04;;;;;;;1.92;0.95;;;10.60;99.90;;;;;;5054762;28;20483;-80
2022/07/09 01:40:32;;;;;;;1.05;0.55;;;10.60;99.90;;;;;;5053871;28;20475;-75
2022/07/09 01:43:00;;;;;;;2.22;0.70;;;10.60;99.90;;;;;;5054635;28;20558;-74
2022/07/09 01:45:28;;;;;;;0.52;0.50;;;10.60;99.90;;;;;;5069233;28;20021;-75
2022/07/09 01:47:55;;;;;;;1.25;0.50;;;10.70;99.90;;;;;;5074107;28;20021;-74
2022/07/09 01:50:26;;;;;;;1.15;0.40;;;10.60;99.90;;;;;;5074429;28;20016;-75
2022/07/09 01:52:53;;;;;;;0.93;0.68;;;10.70;99.90;;;;;;5074602;28;20027;-75
2022/07/09 01:55:21;;;;;;;0.82;0.60;;;10.80;99.90;;;;;;5074076;28;20043;-75
2022/07/09 01:57:49;;;;;;;1.25;0.40;;;10.90;99.90;;;;;;5074455;28;20444;-74
2022/07/09 02:00:18;;;;;;;0.60;0.40;;;11.00;99.90;;;;;;5074124;28;20478;-75
2022/07/09 02:02:46;;;;;;;0.93;0.85;;;11.10;99.90;;;;;;5074297;28;20157;-75
2022/07/09 02:05:14;;;;;;;1.10;0.40;;;11.10;99.90;;;;;;5073444;28;20052;-75
2022/07/09 02:07:42;;;;;;;0.75;0.60;;;11.10;99.90;;;;;;5073785;28;20021;-74
2022/07/09 02:10:10;;;;;;;1.65;0.80;;;11.30;99.90;;;;;;5073488;28;20029;-74
2022/07/09 02:12:37;;;;;;;1.25;0.70;;;11.40;99.90;;;;;;5055791;28;20360;-75
2022/07/09 02:15:06;;;;;;;1.25;0.77;;;11.40;99.90;;;;;;5073254;28;20029;-70
2022/07/09 02:17:34;;;;;;;1.00;0.50;;;11.50;99.90;;;;;;5070986;28;20411;-76
2022/07/09 02:20:02;;;;;;;0.98;0.47;;;11.50;99.90;;;;;;5073515;28;20443;-75
2022/07/09 02:22:31;;;;;;;1.38;0.47;;;11.50;99.90;;;;;;5055404;28;20039;-74
2022/07/09 02:24:58;;;;;;;3.58;0.73;;;11.50;99.90;;;;;;5073087;28;20549;-76
2022/07/09 02:27:26;;;;;;;0.30;0.30;;;11.60;99.90;;;;;;5073418;28;20033;-70
2022/07/09 02:29:54;;;;;;;0.30;0.30;;;11.60;99.90;;;;;;5070377;28;20013;-74
2022/07/09 02:32:21;;;;;;;1.83;0.60;;;11.70;99.90;;;;;;5073414;28;20028;-74
2022/07/09 02:34:50;;;;;;;1.77;0.57;;;11.70;99.90;;;;;;5072034;28;20169;-70
2022/07/09 02:37:18;;;;;;;0.82;0.40;;;11.70;99.90;;;;;;5072833;28;20368;-75
2022/07/09 02:39:45;;;;;;;3.63;0.40;;;11.70;99.90;;;;;;5055133;28;20470;-75
2022/07/09 02:42:13;;;;;;;0.80;0.45;;;11.80;99.90;;;;;;5072941;28;20021;-73
2022/07/09 02:44:43;;;;;;;0.63;0.40;;;11.80;99.90;;;;;;5072718;28;20489;-74
2022/07/09 02:47:11;;;;;;;1.88;0.60;;;11.80;99.90;;;;;;5072870;28;20048;-74
2022/07/09 02:49:38;;;;;;;1.35;0.50;;;11.80;99.90;;;;;;5072847;28;20017;-74
2022/07/09 02:52:06;;;;;;;1.13;0.60;;;11.80;99.90;;;;;;5072780;28;20033;-75
2022/07/09 02:54:34;;;;;;;1.27;0.50;;;11.80;99.90;;;;;;5072414;28;20040;-74
2022/07/09 02:57:02;;;;;;;0.40;0.40;;;11.80;99.90;;;;;;5072652;28;20417;-74
2022/07/09 02:59:30;;;;;;;1.48;0.40;;;11.80;99.90;;;;;;5072725;28;20039;-74
2022/07/09 03:01:57;;;;;;;2.08;0.65;;;11.90;99.90;;;;;;5068266;28;20041;-75
2022/07/09 03:04:25;;;;;;;0.98;0.57;;;11.90;99.90;;;;;;5072420;28;20605;-75
2022/07/09 03:06:53;;;;;;;1.38;0.63;;;12.00;99.90;;;;;;5071243;28;20020;-75
2022/07/09 03:09:21;;;;;;;0.55;0.35;;;12.00;99.90;;;;;;5072842;28;20024;-74
2022/07/09 03:11:48;;;;;;;2.05;0.60;;;12.00;99.90;;;;;;5072962;28;20020;-75
2022/07/09 03:14:16;;;;;;;1.30;0.63;;;12.00;99.90;;;;;;5073071;28;20390;-75
2022/07/09 03:16:44;;;;;;;0.90;0.50;;;12.00;99.90;;;;;;5073222;28;20025;-74
2022/07/09 03:19:11;;;;;;;1.13;0.60;;;12.00;99.90;;;;;;5073144;28;20060;-75
2022/07/09 03:21:39;;;;;;;0.88;0.35;;;12.10;99.90;;;;;;5073143;28;20032;-74
2022/07/09 03:24:08;;;;;;;0.95;0.55;;;12.10;99.90;;;;;;5072838;28;20031;-75
2022/07/09 03:26:36;;;;;;;1.25;0.77;;;12.20;99.90;;;;;;5072044;28;20382;-74
2022/07/09 03:29:04;;;;;;;1.02;0.50;;;12.30;99.90;;;;;;5073072;28;20471;-75
2022/07/09 03:31:31;;;;;;;0.65;0.30;;;12.30;99.90;;;;;;5072889;28;20103;-75
2022/07/09 03:33:59;;;;;;;0.35;0.30;;;12.40;99.90;;;;;;5073074;28;20508;-75
2022/07/09 03:36:27;;;;;;;0.68;0.30;;;12.40;99.90;;;;;;5072939;28;20039;-74
2022/07/09 03:38:55;;;;;;;4.07;0.80;;;12.40;99.90;;;;;;5055107;28;20389;-75
2022/07/09 03:41:23;;;;;;;2.72;0.50;;;12.50;99.90;;;;;;5072846;28;20078;-74
2022/07/09 03:43:50;;;;;;;0.70;0.50;;;12.60;99.90;;;;;;5072948;28;20029;-75
2022/07/09 03:46:18;;;;;;;1.73;0.60;;;12.60;99.90;;;;;;5072763;28;20036;-75
2022/07/09 03:48:48;;;;;;;0.77;0.50;;;12.50;99.90;;;;;;5072709;28;20036;-73
2022/07/09 03:51:16;;;;;;;1.13;0.65;;;12.60;99.90;;;;;;5076350;28;20074;-75
2022/07/09 03:53:44;;;;;;;0.95;0.55;;;12.60;99.90;;;;;;5077020;28;20040;-75
2022/07/09 03:56:12;;;;;;;1.08;0.45;;;12.60;99.90;;;;;;5076840;28;20025;-75
2022/07/09 03:58:40;;;;;;;2.50;0.57;;;12.60;99.90;;;;;;5076984;28;20028;-75
2022/07/09 04:01:07;;;;;;;1.40;0.63;;;12.60;99.90;;;;;;5076423;28;20518;-73
2022/07/09 04:03:35;;;;;;;2.53;0.43;;;12.60;99.90;;;;;;5076842;28;20467;-71
2022/07/09 04:06:03;;;;;;;10.77;1.40;;;12.50;99.90;;;;;;5076373;28;20120;-75
2022/07/09 04:08:30;;;;;;;0.47;0.35;;;12.50;99.90;;;;;;5076533;28;20020;-75
2022/07/09 04:10:58;;;;;;;0.82;0.40;;;12.50;99.90;;;;;;5076675;28;20028;-75
2022/07/09 04:13:26;;;;;;;0.73;0.50;;;12.50;99.90;;;;;;5076123;28;20048;-75
2022/07/09 04:15:53;;;;;;;1.35;0.63;;;12.70;99.90;;;;;;5076285;28;20060;-75
2022/07/09 04:18:21;;;;;;;0.70;0.40;;;12.70;99.90;;;;;;5058544;28;20405;-75
2022/07/09 04:20:49;;;;;;;0.55;0.40;;;12.60;99.90;;;;;;5076414;28;20028;-76
2022/07/09 04:23:17;;;;;;;2.05;0.60;;;12.50;99.90;;;;;;5076219;28;20078;-75
2022/07/09 04:25:45;;;;;;;2.35;0.60;;;12.60;99.90;;;;;;5076039;28;20436;-75
2022/07/09 04:28:13;;;;;;;2.28;0.50;;;12.50;99.90;;;;;;5076207;28;20020;-75
2022/07/09 04:30:41;;;;;;;0.80;0.30;;;12.50;99.90;;;;;;5076612;28;20096;-75
2022/07/09 04:33:09;;;;;;;0.73;0.43;;;12.40;99.90;;;;;;5075919;28;20077;-74
2022/07/09 04:35:36;;;;;;;8.98;0.60;;;12.40;99.90;;;;;;5076105;28;20044;-75
2022/07/09 04:38:05;;;;;;;1.02;0.50;;;12.50;99.90;;;;;;5076113;28;20364;-75
2022/07/09 04:40:32;;;;;;;0.60;0.60;;;12.50;99.90;;;;;;5076251;28;20059;-75
2022/07/09 04:43:00;;;;;;;0.82;0.60;;;12.50;99.90;;;;;;5076202;28;20016;-76
2022/07/09 04:45:29;;;;;;;0.57;0.35;;;12.50;99.90;;;;;;5076051;28;20025;-76
2022/07/09 04:47:58;;;;;;;0.40;0.40;;;12.50;99.90;;;;;;5076024;28;20025;-76
2022/07/09 04:50:27;;;;;;;1.33;0.38;;;12.40;99.90;;;;;;5076019;28;20056;-76
2022/07/09 04:52:54;;;;;;;4.53;0.55;;;12.40;99.90;;;;;;5075823;28;20394;-77
2022/07/09 04:55:22;;;;;;;0.55;0.40;;;12.50;99.90;;;;;;5075920;28;20041;-74
2022/07/09 04:57:50;;;;;;;0.50;0.43;;;12.40;99.90;;;;;;5075823;28;20028;-75
2022/07/09 05:00:18;;;;;;;0.93;0.40;;;12.50;99.90;;;;;;5075266;28;20041;-74
2022/07/09 05:02:46;;;;;;;1.13;0.40;;;12.60;99.90;;;;;;5075757;28;20036;-75
2022/07/09 05:05:14;;;;;;;0.52;0.43;;;12.60;99.90;;;;;;5075547;28;20383;-75
2022/07/09 05:07:42;;;;;;;0.43;0.38;;;12.60;99.90;;;;;;5075788;28;20024;-76
2022/07/09 05:10:10;;;;;;;0.35;0.30;;;12.60;99.90;;;;;;5075682;28;20028;-76
2022/07/09 05:12:38;;;;;;;0.40;0.30;;;12.50;99.90;;;;;;5075656;28;20094;-76
2022/07/09 05:15:06;;;;;;;0.98;0.57;;;12.50;99.90;;;;;;5075227;28;20386;-76
2022/07/09 05:17:38;;;;;;;3.20;1.13;;;12.50;99.90;;;;;;5075314;28;20012;-76
2022/07/09 05:20:08;;;;;;;2.15;1.20;;;12.50;99.90;;;;;;5075634;28;20107;-74
2022/07/09 05:22:37;;;;;;;1.50;0.60;;;12.60;99.90;;;;;;5075198;28;20508;-76
2022/07/09 05:25:07;;;;;;;1.95;0.77;;;12.70;99.90;;;;;;5075041;28;20039;-77
2022/07/09 05:27:45;;;;;;;0.73;0.40;;;12.70;99.90;;;;;;5075507;28;20024;-76
2022/07/09 05:30:15;;;;;;;1.02;0.50;;;12.70;99.90;;;;;;5075319;28;20017;-76
2022/07/09 05:32:43;;;;;;;1.05;0.50;;;12.70;99.90;;;;;;5075033;28;20103;-81
2022/07/09 05:35:12;;;;;;;0.65;0.50;;;12.70;99.90;;;;;;5074557;28;20037;-77
2022/07/09 05:37:44;;;;;;;2.17;0.45;;;12.70;99.90;;;;;;5075039;28;20497;-74
2022/07/09 05:40:13;;;;;;;1.98;0.47;;;12.70;99.90;;;;;;5075018;28;20025;-78
2022/07/09 05:42:40;;;;;;;1.63;0.82;;;12.80;99.90;;;;;;5075050;28;20071;-74
2022/07/09 05:45:09;;;;;;;0.32;0.32;;;12.80;99.90;;;;;;5075198;28;20039;-67
2022/07/09 05:47:36;;;;;;;1.58;0.88;;;12.80;99.90;;;;;;5074983;28;20069;-77
2022/07/09 05:50:05;;;;;;;1.15;0.93;;;12.80;99.90;;;;;;5074703;28;20108;-77
2022/07/09 05:52:33;;;;;;;2.92;1.15;;;12.80;99.90;;;;;;5074606;28;20390;-78
2022/07/09 05:55:03;;;;;;;1.60;0.80;;;12.70;99.90;;;;;;5074686;28;20440;-74
2022/07/09 05:57:31;;;;;;;1.80;0.93;;;12.70;99.90;;;;;;5074727;28;20108;-74
2022/07/09 05:59:59;;;;;;;2.45;1.08;;;12.70;99.90;;;;;;5073668;28;20115;-77
2022/07/09 06:02:27;;;;;;;1.58;0.70;;;12.60;99.90;;;;;;5056306;28;20063;-77
2022/07/09 06:04:57;;;;;;;1.52;0.70;;;12.60;99.90;;;;;;5074174;28;20039;-77
2022/07/09 06:07:25;;;;;;;1.02;0.63;;;12.60;99.90;;;;;;5071664;28;20009;-74
2022/07/09 06:09:53;;;;;;;1.70;0.70;;;12.50;99.90;;;;;;5073979;28;20467;-75
2022/07/09 06:12:20;;;;;;;0.98;0.60;;;12.40;99.90;;;;;;5073258;28;20467;-77
2022/07/09 06:14:48;;;;;;;2.28;0.82;;;12.40;99.90;;;;;;5073944;28;20569;-75
2022/07/09 06:17:16;;;;;;;2.85;0.90;;;12.40;99.90;;;;;;5073880;28;20483;-73
2022/07/09 06:19:44;;;;;;;1.10;0.70;;;12.30;99.90;;;;;;5071167;28;20039;-75
2022/07/09 06:22:11;;;;;;;2.55;1.17;;;12.20;99.90;;;;;;5073881;28;20012;-75
2022/07/09 06:24:39;;;;;;;1.95;1.00;;;12.20;99.90;;;;;;5055728;28;20033;-74
2022/07/09 06:27:07;;;;;;;2.88;1.25;;;12.20;99.90;;;;;;5073642;28;20050;-74
2022/07/09 06:29:36;;;;;;;3.03;1.15;;;12.10;99.90;;;;;;5055079;28;20035;-74
2022/07/09 06:32:04;;;;;;;1.20;0.73;;;12.10;99.90;;;;;;5068089;28;20052;-74
2022/07/09 06:34:32;;;;;;;1.10;0.60;;;12.20;99.90;;;;;;5073078;28;20024;-75
2022/07/09 06:37:00;;;;;;;1.77;0.98;;;12.20;99.90;;;;;;5073152;28;20098;-67
2022/07/09 06:39:46;;;;;;;2.22;0.80;;;12.30;99.90;;;;;;5073213;28;20025;-77
2022/07/09 06:42:16;;;;;;;2.65;0.82;;;12.40;99.90;;;;;;5071834;28;20023;-73
2022/07/09 06:44:44;;;;;;;3.08;0.90;;;12.50;99.90;;;;;;5070443;28;20024;-78
2022/07/09 06:47:12;;;;;;;3.17;1.25;;;12.40;99.90;;;;;;5073264;28;20428;-78
2022/07/09 06:49:40;;;;;;;8.57;1.42;;;12.40;99.90;;;;;;5072947;28;20432;-76
2022/07/09 06:52:08;;;;;;;3.35;0.90;;;12.40;99.90;;;;;;5072753;28;20030;-77
2022/07/09 06:54:36;;;;;;;5.10;1.30;;;12.30;99.90;;;;;;5072695;28;20398;-77
2022/07/09 06:57:06;;;;;;;4.13;1.98;;;12.30;99.90;;;;;;5052469;28;20017;-77
2022/07/09 06:59:34;;;;;;;5.35;3.08;;;12.20;99.90;;;;;;5073054;28;20030;-78
2022/07/09 07:02:02;;;;;;;5.82;1.90;;;12.20;99.90;;;;;;5072074;28;20406;-78
2022/07/09 07:04:29;;;;;;;3.38;1.50;;;12.10;99.90;;;;;;5072662;28;20107;-76
2022/07/09 07:06:57;;;;;;;5.18;1.25;;;12.10;99.90;;;;;;5072762;28;20544;-71
2022/07/09 07:09:25;;;;;;;3.75;1.58;;;12.10;99.90;;;;;;5070368;28;20362;-77
2022/07/09 07:11:52;;;;;;;2.97;1.73;;;12.00;99.90;;;;;;5072805;28;20052;-76
2022/07/09 07:14:20;;;;;;;3.60;1.45;;;12.00;99.90;;;;;;5072684;28;20502;-77
2022/07/09 07:16:48;;;;;;;3.70;2.10;;;11.80;99.90;;;;;;5072998;28;20028;-73
2022/07/09 07:19:16;;;;;;;3.00;1.83;;;11.80;99.90;;;;;;5072702;28;20016;-72
2022/07/09 07:21:44;;;;;;;4.25;1.60;;;11.70;99.90;;;;;;5051894;28;20108;-74
2022/07/09 07:24:13;;;;;;;4.60;2.00;;;11.60;99.90;;;;;;5071245;28;20070;-73
2022/07/09 07:26:40;;;;;;;4.47;2.05;;;11.60;99.90;;;;;;5070456;28;20062;-73
2022/07/09 07:29:08;;;;;;;3.03;2.22;;;11.50;99.90;;;;;;5052671;28;20059;-69
2022/07/09 07:31:36;;;;;;;3.17;2.70;;;11.40;99.90;;;;;;5065730;28;20032;-73
2022/07/09 07:34:03;;;;;;;5.07;3.20;;;11.30;99.90;;;;;;5058732;28;20025;-70
2022/07/09 07:36:31;;;;;;;3.88;2.13;;;11.30;99.90;;;;;;5058855;28;20059;-72
2022/07/09 07:38:59;;;;;;;3.03;2.30;;;11.20;99.90;;;;;;5070850;28;20099;-73
2022/07/09 07:41:26;;;;;;;4.93;2.60;;;11.20;99.90;;;;;;5071258;28;20033;-73
2022/07/09 07:43:54;;;;;;;3.95;2.83;;;11.20;99.90;;;;;;5067070;28;20033;-72
2022/07/09 07:46:22;;;;;;;4.65;3.22;;;11.20;99.90;;;;;;5070063;28;20074;-73
2022/07/09 07:48:50;;;;;;;12.98;6.22;;;11.10;99.90;;;;;;5066948;28;20086;-73
2022/07/09 07:51:18;;;;;;;13.45;6.90;;;11.10;99.90;;;;;;5052282;28;20090;-73
2022/07/09 07:53:46;;;;;;;7.47;4.35;;;11.00;99.90;;;;;;5053958;28;20031;-74
2022/07/09 07:56:13;;;;;;;8.70;3.67;;;11.00;99.90;;;;;;5059546;28;20024;-73
2022/07/09 07:58:41;;;;;;;5.78;3.22;;;11.00;99.90;;;;;;5051320;28;20049;-73
2022/07/09 08:01:09;;;;;;;4.30;2.42;;;11.00;99.90;;;;;;5050758;28;20103;-73
2022/07/09 08:03:36;;;;;;;4.78;2.00;;;10.90;99.90;;;;;;5051578;28;20475;-72
2022/07/09 08:06:04;;;;;;;5.22;2.00;;;10.90;99.90;;;;;;5051530;28;20033;-73
2022/07/09 08:08:32;;;;;;;2.55;1.70;;;10.90;99.90;;;;;;5051151;28;20021;-74
2022/07/09 08:11:00;;;;;;;3.28;1.92;;;10.80;99.90;;;;;;5051357;28;20494;-72
2022/07/09 08:13:28;;;;;;;2.63;2.00;;;10.80;99.90;;;;;;5050909;28;20082;-73
2022/07/09 08:15:56;;;;;;;2.97;1.88;;;10.80;99.90;;;;;;5051257;28;20028;-74
2022/07/09 08:18:24;;;;;;;2.97;1.73;;;10.70;99.90;;;;;;5051326;28;20116;-71
2022/07/09 08:20:52;;;;;;;3.30;1.70;;;10.70;99.90;;;;;;5051455;28;20483;-73
2022/07/09 08:23:20;;;;;;;3.45;1.98;;;10.70;99.90;;;;;;5051657;28;20110;-72
2022/07/09 08:25:49;;;;;;;3.60;1.83;;;10.70;99.90;;;;;;5051311;28;20037;-69
2022/07/09 08:28:17;;;;;;;2.55;1.67;;;10.60;99.90;;;;;;5051274;28;20021;-72
2022/07/09 08:30:45;;;;;;;4.65;2.20;;;10.60;99.90;;;;;;5051335;28;20032;-71
2022/07/09 08:33:13;;;;;;;4.80;2.55;;;10.60;99.90;;;;;;5051095;28;20380;-68
2022/07/09 08:35:40;;;;;;;4.78;2.72;;;10.50;99.90;;;;;;5052392;28;20118;-72
2022/07/09 08:38:08;;;;;;;6.53;3.35;;;10.50;99.90;;;;;;5055221;28;20029;-72
2022/07/09 08:40:38;;;;;;;6.82;3.35;;;10.40;99.90;;;;;;5054287;28;20025;-72
2022/07/09 08:43:06;;;;;;;5.43;4.55;;;10.40;99.90;;;;;;5055325;28;20463;-72
2022/07/09 08:45:35;;;;;;;7.03;3.53;;;10.30;99.90;;;;;;5055160;28;20024;-72
2022/07/09 08:48:05;;;;;;;6.80;3.22;;;10.30;99.90;;;;;;5055400;28;20071;-73
2022/07/09 08:50:34;;;;;;;3.97;2.88;;;10.30;99.90;;;;;;5054901;28;20454;-73
2022/07/09 08:53:04;;;;;;;5.28;3.17;;;10.20;99.90;;;;;;5055038;28;20017;-73
2022/07/09 08:55:33;;;;;;;3.55;2.80;;;10.20;99.90;;;;;;5054626;28;20043;-71
2022/07/09 08:58:00;;;;;;;5.75;3.22;;;10.20;99.90;;;;;;5055308;28;20025;-68
2022/07/09 09:00:28;;;;;;;6.03;2.80;;;10.10;99.90;;;;;;5054591;28;20037;-72
2022/07/09 09:02:56;;;;;;;6.22;3.42;;;10.10;99.90;;;;;;5055171;28;20100;-73
2022/07/09 09:05:23;;;;;;;3.63;2.50;;;10.10;99.90;;;;;;5055000;28;20021;-73
2022/07/09 09:07:51;;;;;;;5.18;3.25;;;10.00;99.90;;;;;;5058203;28;20068;-72
2022/07/09 09:10:26;;;;;;;3.47;2.42;;;10.00;99.90;;;;;;5067450;28;20100;-70
2022/07/09 09:13:03;;;;;;;3.90;2.58;;;10.00;99.90;;;;;;5067282;28;20028;-73
2022/07/09 09:15:31;;;;;;;6.28;2.70;;;9.90;99.90;;;;;;5048703;28;20407;-71
2022/07/09 09:17:58;;;;;;;3.28;2.20;;;9.90;99.90;;;;;;5068886;28;20066;-71
2022/07/09 09:20:26;;;;;;;6.05;2.33;;;9.90;99.90;;;;;;5069561;28;20100;-69
2022/07/09 09:22:59;;;;;;;3.92;2.42;;;9.80;99.90;;;;;;5053758;28;20107;-69
2022/07/09 09:25:27;;;;;;;3.78;2.72;;;9.80;99.90;;;;;;5070484;28;20024;-68
2022/07/09 09:27:57;;;;;;;3.80;2.65;;;9.80;99.90;;;;;;5071954;28;20032;-73
2022/07/09 09:30:26;;;;;;;3.78;2.33;;;9.70;99.90;;;;;;5058432;28;20029;-73
2022/07/09 09:33:01;;;;;;;4.53;2.70;;;9.70;99.90;;;;;;5053587;28;20021;-73
2022/07/09 09:35:33;;;;;;;4.00;2.85;;;9.70;99.90;;;;;;5057317;28;20040;-69
2022/07/09 09:38:01;;;;;;;4.53;2.95;;;9.60;99.90;;;;;;5057555;28;20024;-72
2022/07/09 09:40:29;;;;;;;5.63;3.70;;;9.60;99.90;;;;;;5055390;28;20474;-72
2022/07/09 09:43:01;;;;;;;5.45;3.17;;;9.60;99.90;;;;;;5057524;28;20463;-73
2022/07/09 09:45:29;;;;;;;8.18;4.25;;;9.50;99.90;;;;;;5054912;28;20036;-69
2022/07/09 09:48:00;;;;;;;7.20;4.35;;;9.50;99.90;;;;;;5056549;28;20193;-73
2022/07/09 09:50:28;;;;;;;6.50;3.75;;;9.40;99.90;;;;;;5053493;28;20086;-72
2022/07/09 09:52:56;;;;;;;5.30;4.30;;;9.40;99.90;;;;;;5053265;28;20021;-72
2022/07/09 09:55:24;;;;;;;6.90;4.15;;;9.40;99.90;;;;;;5053799;28;20029;-72
2022/07/09 09:58:45;;;;;;;4.65;3.58;;;9.30;99.90;;;;;;5053194;28;20021;-67
2022/07/09 10:01:13;;;;;;;6.03;3.70;;;9.30;99.90;;;;;;4991785;28;20043;-68
2022/07/09 10:03:41;;;;;;;5.88;3.45;;;9.30;99.90;;;;;;5058614;28;20450;-67
2022/07/09 10:06:09;;;;;;;6.60;3.92;;;9.30;99.90;;;;;;5053410;28;20537;-68
2022/07/09 10:08:37;;;;;;;7.75;4.90;;;9.30;99.90;;;;;;5053692;28;20092;-77
2022/07/09 10:11:05;;;;;;;5.95;4.13;;;9.20;99.90;;;;;;5056766;28;20021;-73
2022/07/09 10:13:33;;;;;;;5.03;3.60;;;9.20;99.90;;;;;;5056203;28;20083;-72
2022/07/09 10:16:01;;;;;;;6.00;3.30;;;9.10;99.90;;;;;;5056380;28;20032;-73
2022/07/09 10:18:28;;;;;;;4.95;3.17;;;9.20;99.90;;;;;;5056294;28;20071;-66
2022/07/09 10:20:59;;;;;;;5.80;3.60;;;9.20;99.90;;;;;;5057312;28;20563;-66
2022/07/09 10:23:27;;;;;;;5.28;3.22;;;9.10;99.90;;;;;;5056227;28;20032;-73
2022/07/09 10:25:58;;;;;;;7.13;2.88;;;9.10;99.90;;;;;;5055330;28;20433;-71
2022/07/09 10:28:26;;;;;;;4.63;2.75;;;9.10;99.90;;;;;;5055705;28;20021;-66
2022/07/09 10:30:53;;;;;;;4.22;3.20;;;9.10;99.90;;;;;;5055988;28;20020;-67
2022/07/09 10:33:38;;;;;;;4.00;3.22;;;9.10;99.90;;;;;;5055228;28;20021;-67
2022/07/09 10:36:15;;;;;;;6.03;3.65;;;9.00;99.90;;;;;;5055775;28;20399;-67
2022/07/09 10:38:57;;;;;;;8.57;3.45;;;9.00;99.90;;;;;;5055957;28;20013;-68
2022/07/09 10:41:25;;;;;;;4.97;3.30;;;9.00;99.90;;;;;;5055687;28;20456;-73
2022/07/09 10:43:53;;;;;;;3.80;2.92;;;9.00;99.90;;;;;;5055651;28;20056;-67
2022/07/09 10:46:22;;;;;;;4.78;3.25;;;9.00;99.90;;;;;;5053112;28;20021;-66
2022/07/09 10:48:49;;;;;;;4.80;2.85;;;9.00;99.90;;;;;;5056844;28;20028;-72
2022/07/09 10:51:19;;;;;;;3.97;2.75;;;9.00;99.90;;;;;;5056835;28;20025;-70
2022/07/09 10:53:47;;;;;;;4.05;2.88;;;8.90;99.90;;;;;;5055226;28;20022;-71
2022/07/09 10:56:22;;;;;;;6.15;3.53;;;8.90;99.90;;;;;;5052526;28;20028;-67
2022/07/09 10:58:51;;;;;;;4.90;2.80;;;8.80;99.90;;;;;;5052570;28;20020;-67
2022/07/09 11:01:27;;;;;;;4.80;2.75;;;8.80;99.90;;;;;;5052036;28;20049;-66
2022/07/09 11:03:55;;;;;;;4.32;3.13;;;8.80;99.90;;;;;;5052563;28;20032;-67
2022/07/09 11:06:22;;;;;;;4.13;2.63;;;8.80;99.90;;;;;;5052290;28;20383;-66
2022/07/09 11:08:50;;;;;;;4.22;2.50;;;8.80;99.90;;;;;;5060416;28;20025;-67
2022/07/09 11:11:27;;;;;;;3.70;2.83;;;8.70;99.90;;;;;;5056812;28;20551;-66
2022/07/09 11:13:56;;;;;;;4.60;3.15;;;8.70;99.90;;;;;;5052190;28;20060;-66
2022/07/09 11:16:26;;;;;;;5.18;2.60;;;8.70;99.90;;;;;;5051787;28;20067;-67
2022/07/09 11:18:55;;;;;;;6.07;2.95;;;8.70;99.90;;;;;;5052227;28;20017;-68
2022/07/09 11:21:24;;;;;;;3.55;2.55;;;8.60;99.90;;;;;;5052004;28;20036;-67
2022/07/09 11:23:52;;;;;;;2.88;2.00;;;8.60;99.90;;;;;;5054507;28;20033;-67
2022/07/09 11:26:20;;;;;;;5.13;2.55;;;8.60;99.90;;;;;;5064810;28;20025;-68
2022/07/09 11:28:48;;;;;;;4.32;2.50;;;8.60;99.90;;;;;;5070917;28;20021;-67
2022/07/09 11:31:17;;;;;;;4.38;2.72;;;8.60;99.90;;;;;;5068051;28;20048;-67
2022/07/09 11:36:48;;;;;;;3.58;2.30;;;8.60;99.90;;;;;;5054095;28;20074;-66
2022/07/09 11:39:27;;;;;;;4.18;2.10;;;8.60;99.90;;;;;;5052034;28;20029;-67
2022/07/09 11:41:56;;;;;;;5.18;2.17;;;8.60;99.90;;;;;;5051637;28;20437;-67
2022/07/09 11:44:26;;;;;;;3.28;2.10;;;8.50;99.90;;;;;;5051514;28;20174;-67
2022/07/09 11:47:07;;;;;;;3.67;2.05;;;8.50;99.90;;;;;;5051752;28;20021;-67
2022/07/09 11:49:46;;;;;;;2.95;2.17;;;8.50;99.90;;;;;;5051878;28;20408;-67
2022/07/09 11:52:23;;;;;;;3.45;2.33;;;8.50;99.90;;;;;;5051356;28;20010;-66
2022/07/09 11:55:09;;;;;;;2.88;1.98;;;8.40;99.90;;;;;;5051975;28;20032;-67
2022/07/09 11:57:38;;;;;;;2.50;2.13;;;8.50;99.90;;;;;;5052114;28;20013;-67
2022/07/09 12:00:08;;;;;;;1.88;1.27;;;8.50;99.90;;;;;;5051417;28;20479;-67
2022/07/09 12:02:38;;;;;;;2.67;1.75;;;8.50;99.90;;;;;;5052172;28;20071;-67
2022/07/09 12:05:09;;;;;;;2.47;1.40;;;8.50;99.90;;;;;;5052066;28;20071;-74
2022/07/09 12:07:37;;;;;;;2.35;1.70;;;8.50;99.90;;;;;;5052164;28;20475;-75
2022/07/09 12:10:06;;;;;;;1.83;1.40;;;8.50;99.90;;;;;;5052355;28;20070;-75
2022/07/09 12:12:35;;;;;;;2.78;1.80;;;8.50;99.90;;;;;;5055765;28;20017;-73
2022/07/09 12:15:08;;;;;;;3.75;1.45;;;8.50;99.90;;;;;;5055954;28;20115;-74
2022/07/09 12:17:37;;;;;;;3.35;1.70;;;8.50;99.90;;;;;;5055926;28;20095;-66
2022/07/09 12:20:07;;;;;;;4.68;1.40;;;8.50;99.90;;;;;;5055740;28;20395;-71
2022/07/09 12:22:35;;;;;;;2.35;1.48;;;8.50;99.90;;;;;;5058225;28;20489;-67
2022/07/09 12:25:03;;;;;;;2.13;1.38;;;8.50;99.90;;;;;;5057434;28;20051;-66
2022/07/09 12:27:31;;;;;;;2.97;1.48;;;8.50;99.90;;;;;;5055569;28;20032;-67
2022/07/09 12:29:58;;;;;;;2.47;1.63;;;8.50;99.90;;;;;;5055380;28;20472;-67
2022/07/09 12:32:27;;;;;;;1.85;1.35;;;8.50;99.90;;;;;;5055466;28;20034;-67
2022/07/09 12:34:54;;;;;;;2.35;1.40;;;8.50;99.90;;;;;;5055527;28;20029;-66
2022/07/09 12:37:22;;;;;;;1.95;1.35;;;8.40;99.90;;;;;;5055430;28;20482;-67
2022/07/09 12:39:50;;;;;;;2.83;1.88;;;8.40;99.90;;;;;;5055316;28;20112;-71
2022/07/09 12:42:18;;;;;;;5.47;1.83;;;8.40;99.90;;;;;;5055368;28;20438;-74
2022/07/09 12:44:52;;;;;;;3.35;1.63;;;8.50;99.90;;;;;;5055165;28;20505;-67
2022/07/09 12:47:20;;;;;;;2.45;1.42;;;8.40;99.90;;;;;;5055028;28;20036;-67
2022/07/09 12:49:48;;;;;;;2.30;1.52;;;8.40;99.90;;;;;;5055395;28;20075;-74
2022/07/09 12:52:15;;;;;;;1.70;1.30;;;8.40;99.90;;;;;;5060671;28;20021;-74
2022/07/09 12:54:43;;;;;;;3.22;1.42;;;8.40;99.90;;;;;;5055139;28;20103;-66
2022/07/09 12:57:12;;;;;;;2.35;1.30;;;8.40;99.90;;;;;;5054916;28;20109;-67
2022/07/09 12:59:40;;;;;;;2.40;1.50;;;8.40;99.90;;;;;;5054930;28;20394;-69
2022/07/09 13:02:08;;;;;;;3.05;1.40;;;8.40;99.90;;;;;;5054813;28;20045;-67